sensor_id;sensor_type;location;lat;lon;timestamp;P1;durP1;ratioP1;P2;durP2;ratioP2
55007;SDS011;40902;45.116;21.296;2022-11-20T00:00:48;5.47;;;3.10;;
55007;SDS011;40902;45.116;21.296;2022-11-20T00:03:14;5.00;;;3.00;;
55007;SDS011;40902;45.116;21.296;2022-11-20T00:05:40;7.25;;;3.70;;
55007;SDS011;40902;45.116;21.296;2022-11-20T00:08:06;8.05;;;4.22;;
55007;SDS011;40902;45.116;21.296;2022-11-20T00:10:31;6.90;;;3.75;;
55007;SDS011;40902;45.116;21.296;2022-11-20T00:12:57;8.85;;;4.35;;
55007;SDS011;40902;45.116;21.296;2022-11-20T00:15:23;8.82;;;5.65;;
55007;SDS011;40902;45.116;21.296;2022-11-20T00:17:49;10.20;;;6.75;;
55007;SDS011;40902;45.116;21.296;2022-11-20T00:20:15;9.88;;;6.50;;
55007;SDS011;40902;45.116;21.296;2022-11-20T00:22:41;9.15;;;5.60;;
55007;SDS011;40902;45.116;21.296;2022-11-20T00:25:06;6.97;;;4.30;;
55007;SDS011;40902;45.116;21.296;2022-11-20T00:27:32;5.88;;;3.60;;
55007;SDS011;40902;45.116;21.296;2022-11-20T00:29:58;6.90;;;3.92;;
55007;SDS011;40902;45.116;21.296;2022-11-20T00:32:24;5.95;;;3.53;;
55007;SDS011;40902;45.116;21.296;2022-11-20T00:34:49;5.72;;;2.83;;
55007;SDS011;40902;45.116;21.296;2022-11-20T00:37:15;6.18;;;2.60;;
55007;SDS011;40902;45.116;21.296;2022-11-20T00:39:41;4.53;;;3.10;;
55007;SDS011;40902;45.116;21.296;2022-11-20T00:42:07;4.93;;;2.47;;
55007;SDS011;40902;45.116;21.296;2022-11-20T00:44:32;4.70;;;2.75;;
55007;SDS011;40902;45.116;21.296;2022-11-20T00:46:58;6.53;;;2.58;;
55007;SDS011;40902;45.116;21.296;2022-11-20T00:49:24;4.28;;;2.80;;
55007;SDS011;40902;45.116;21.296;2022-11-20T00:51:49;9.55;;;3.05;;
55007;SDS011;40902;45.116;21.296;2022-11-20T00:54:15;6.38;;;3.90;;
55007;SDS011;40902;45.116;21.296;2022-11-20T00:56:41;5.65;;;3.10;;
55007;SDS011;40902;45.116;21.296;2022-11-20T00:59:08;6.65;;;3.63;;
55007;SDS011;40902;45.116;21.296;2022-11-20T01:01:34;5.95;;;3.70;;
55007;SDS011;40902;45.116;21.296;2022-11-20T01:04:01;5.18;;;3.33;;
55007;SDS011;40902;45.116;21.296;2022-11-20T01:06:31;4.53;;;2.70;;
55007;SDS011;40902;45.116;21.296;2022-11-20T01:08:59;5.18;;;2.47;;
55007;SDS011;40902;45.116;21.296;2022-11-20T01:11:32;4.78;;;2.38;;
55007;SDS011;40902;45.116;21.296;2022-11-20T01:14:00;4.30;;;2.10;;
55007;SDS011;40902;45.116;21.296;2022-11-20T01:18:59;7.15;;;3.50;;
55007;SDS011;40902;45.116;21.296;2022-11-20T01:21:33;6.60;;;3.63;;
55007;SDS011;40902;45.116;21.296;2022-11-20T01:24:01;5.05;;;3.00;;
55007;SDS011;40902;45.116;21.296;2022-11-20T01:26:32;3.97;;;2.75;;
55007;SDS011;40902;45.116;21.296;2022-11-20T01:29:00;4.60;;;2.60;;
55007;SDS011;40902;45.116;21.296;2022-11-20T01:31:27;4.53;;;2.50;;
55007;SDS011;40902;45.116;21.296;2022-11-20T01:33:56;4.00;;;2.50;;
55007;SDS011;40902;45.116;21.296;2022-11-20T01:36:25;4.68;;;2.92;;
55007;SDS011;40902;45.116;21.296;2022-11-20T01:38:57;6.05;;;3.35;;
55007;SDS011;40902;45.116;21.296;2022-11-20T01:41:25;4.82;;;3.05;;
55007;SDS011;40902;45.116;21.296;2022-11-20T01:44:11;3.45;;;2.30;;
55007;SDS011;40902;45.116;21.296;2022-11-20T01:46:40;3.53;;;2.30;;
55007;SDS011;40902;45.116;21.296;2022-11-20T01:49:19;3.65;;;2.10;;
55007;SDS011;40902;45.116;21.296;2022-11-20T01:51:49;3.97;;;2.15;;
55007;SDS011;40902;45.116;21.296;2022-11-20T01:57:15;2.63;;;1.70;;
55007;SDS011;40902;45.116;21.296;2022-11-20T01:59:47;3.17;;;1.90;;
55007;SDS011;40902;45.116;21.296;2022-11-20T02:02:20;3.08;;;2.00;;
55007;SDS011;40902;45.116;21.296;2022-11-20T02:04:47;2.88;;;1.77;;
55007;SDS011;40902;45.116;21.296;2022-11-20T02:07:16;4.05;;;2.20;;
55007;SDS011;40902;45.116;21.296;2022-11-20T02:09:43;5.10;;;1.90;;
55007;SDS011;40902;45.116;21.296;2022-11-20T02:12:09;2.65;;;1.60;;
55007;SDS011;40902;45.116;21.296;2022-11-20T02:14:56;4.07;;;1.98;;
55007;SDS011;40902;45.116;21.296;2022-11-20T02:17:22;2.53;;;1.80;;
55007;SDS011;40902;45.116;21.296;2022-11-20T02:19:49;4.43;;;2.00;;
55007;SDS011;40902;45.116;21.296;2022-11-20T02:22:26;3.53;;;2.17;;
55007;SDS011;40902;45.116;21.296;2022-11-20T02:24:56;5.72;;;2.45;;
55007;SDS011;40902;45.116;21.296;2022-11-20T02:27:24;4.15;;;2.30;;
55007;SDS011;40902;45.116;21.296;2022-11-20T02:29:52;4.15;;;1.80;;
55007;SDS011;40902;45.116;21.296;2022-11-20T02:32:24;2.30;;;1.63;;
55007;SDS011;40902;45.116;21.296;2022-11-20T02:34:52;2.30;;;1.50;;
55007;SDS011;40902;45.116;21.296;2022-11-20T02:37:18;2.78;;;1.70;;
55007;SDS011;40902;45.116;21.296;2022-11-20T02:39:46;3.45;;;1.90;;
55007;SDS011;40902;45.116;21.296;2022-11-20T02:42:13;3.17;;;1.77;;
55007;SDS011;40902;45.116;21.296;2022-11-20T02:44:39;2.30;;;1.52;;
55007;SDS011;40902;45.116;21.296;2022-11-20T02:47:05;1.90;;;1.30;;
55007;SDS011;40902;45.116;21.296;2022-11-20T02:49:31;2.72;;;1.50;;
55007;SDS011;40902;45.116;21.296;2022-11-20T02:51:58;2.92;;;1.60;;
55007;SDS011;40902;45.116;21.296;2022-11-20T02:54:24;2.25;;;1.50;;
55007;SDS011;40902;45.116;21.296;2022-11-20T02:56:50;2.80;;;1.55;;
55007;SDS011;40902;45.116;21.296;2022-11-20T02:59:16;1.90;;;1.30;;
55007;SDS011;40902;45.116;21.296;2022-11-20T03:01:42;3.40;;;1.40;;
55007;SDS011;40902;45.116;21.296;2022-11-20T03:04:07;3.47;;;1.52;;
55007;SDS011;40902;45.116;21.296;2022-11-20T03:06:33;2.75;;;1.70;;
55007;SDS011;40902;45.116;21.296;2022-11-20T03:08:59;3.05;;;1.70;;
55007;SDS011;40902;45.116;21.296;2022-11-20T03:11:24;3.80;;;1.30;;
55007;SDS011;40902;45.116;21.296;2022-11-20T03:13:50;2.33;;;1.50;;
55007;SDS011;40902;45.116;21.296;2022-11-20T03:16:17;2.20;;;1.42;;
55007;SDS011;40902;45.116;21.296;2022-11-20T03:18:45;2.88;;;1.70;;
55007;SDS011;40902;45.116;21.296;2022-11-20T03:21:12;3.42;;;1.95;;
55007;SDS011;40902;45.116;21.296;2022-11-20T03:23:38;3.90;;;2.55;;
55007;SDS011;40902;45.116;21.296;2022-11-20T03:26:38;5.22;;;2.50;;
55007;SDS011;40902;45.116;21.296;2022-11-20T03:28:57;4.40;;;3.15;;
55007;SDS011;40902;45.116;21.296;2022-11-20T03:31:29;5.80;;;3.60;;
55007;SDS011;40902;45.116;21.296;2022-11-20T03:33:56;6.50;;;3.45;;
55007;SDS011;40902;45.116;21.296;2022-11-20T03:36:23;5.45;;;3.63;;
55007;SDS011;40902;45.116;21.296;2022-11-20T03:38:49;8.95;;;5.68;;
55007;SDS011;40902;45.116;21.296;2022-11-20T03:41:21;7.47;;;4.82;;
55007;SDS011;40902;45.116;21.296;2022-11-20T03:43:50;7.85;;;4.97;;
55007;SDS011;40902;45.116;21.296;2022-11-20T03:46:16;7.95;;;5.70;;
55007;SDS011;40902;45.116;21.296;2022-11-20T03:48:42;7.45;;;5.15;;
55007;SDS011;40902;45.116;21.296;2022-11-20T03:53:37;7.22;;;4.55;;
55007;SDS011;40902;45.116;21.296;2022-11-20T03:56:03;6.07;;;4.57;;
55007;SDS011;40902;45.116;21.296;2022-11-20T03:58:29;6.88;;;4.57;;
55007;SDS011;40902;45.116;21.296;2022-11-20T04:00:55;8.02;;;4.80;;
55007;SDS011;40902;45.116;21.296;2022-11-20T04:03:21;7.20;;;4.55;;
55007;SDS011;40902;45.116;21.296;2022-11-20T04:05:47;9.73;;;5.13;;
55007;SDS011;40902;45.116;21.296;2022-11-20T04:08:12;6.40;;;4.95;;
55007;SDS011;40902;45.116;21.296;2022-11-20T04:10:38;5.93;;;4.80;;
55007;SDS011;40902;45.116;21.296;2022-11-20T04:13:04;6.43;;;4.82;;
55007;SDS011;40902;45.116;21.296;2022-11-20T04:15:29;6.05;;;4.32;;
55007;SDS011;40902;45.116;21.296;2022-11-20T04:17:56;6.10;;;4.95;;
55007;SDS011;40902;45.116;21.296;2022-11-20T04:20:22;6.40;;;4.53;;
55007;SDS011;40902;45.116;21.296;2022-11-20T04:22:48;7.18;;;4.70;;
55007;SDS011;40902;45.116;21.296;2022-11-20T04:25:13;8.88;;;5.90;;
55007;SDS011;40902;45.116;21.296;2022-11-20T04:27:39;8.48;;;6.07;;
55007;SDS011;40902;45.116;21.296;2022-11-20T04:30:05;7.53;;;5.65;;
55007;SDS011;40902;45.116;21.296;2022-11-20T04:32:31;9.50;;;6.60;;
55007;SDS011;40902;45.116;21.296;2022-11-20T04:34:57;7.82;;;6.00;;
55007;SDS011;40902;45.116;21.296;2022-11-20T04:37:22;8.02;;;6.10;;
55007;SDS011;40902;45.116;21.296;2022-11-20T04:39:48;7.18;;;5.70;;
55007;SDS011;40902;45.116;21.296;2022-11-20T04:42:14;7.72;;;5.57;;
55007;SDS011;40902;45.116;21.296;2022-11-20T04:44:55;7.57;;;5.35;;
55007;SDS011;40902;45.116;21.296;2022-11-20T04:47:21;7.65;;;5.20;;
55007;SDS011;40902;45.116;21.296;2022-11-20T04:49:47;6.90;;;5.60;;
55007;SDS011;40902;45.116;21.296;2022-11-20T04:52:13;8.80;;;5.57;;
55007;SDS011;40902;45.116;21.296;2022-11-20T04:54:39;6.70;;;5.38;;
55007;SDS011;40902;45.116;21.296;2022-11-20T04:57:04;6.32;;;4.75;;
55007;SDS011;40902;45.116;21.296;2022-11-20T04:59:30;6.25;;;4.68;;
55007;SDS011;40902;45.116;21.296;2022-11-20T05:01:56;7.78;;;4.88;;
55007;SDS011;40902;45.116;21.296;2022-11-20T05:04:21;6.15;;;4.70;;
55007;SDS011;40902;45.116;21.296;2022-11-20T05:06:47;5.68;;;4.57;;
55007;SDS011;40902;45.116;21.296;2022-11-20T05:09:14;7.18;;;4.85;;
55007;SDS011;40902;45.116;21.296;2022-11-20T05:11:40;6.82;;;4.70;;
55007;SDS011;40902;45.116;21.296;2022-11-20T05:14:05;6.40;;;4.78;;
55007;SDS011;40902;45.116;21.296;2022-11-20T05:16:33;5.32;;;4.05;;
55007;SDS011;40902;45.116;21.296;2022-11-20T05:19:00;5.90;;;4.88;;
55007;SDS011;40902;45.116;21.296;2022-11-20T05:21:26;6.55;;;4.20;;
55007;SDS011;40902;45.116;21.296;2022-11-20T05:23:52;5.40;;;3.95;;
55007;SDS011;40902;45.116;21.296;2022-11-20T05:26:19;6.35;;;4.20;;
55007;SDS011;40902;45.116;21.296;2022-11-20T05:28:49;5.55;;;3.90;;
55007;SDS011;40902;45.116;21.296;2022-11-20T05:31:16;7.65;;;5.10;;
55007;SDS011;40902;45.116;21.296;2022-11-20T05:33:44;7.32;;;4.95;;
55007;SDS011;40902;45.116;21.296;2022-11-20T05:36:11;7.03;;;4.53;;
55007;SDS011;40902;45.116;21.296;2022-11-20T05:38:38;7.65;;;4.50;;
55007;SDS011;40902;45.116;21.296;2022-11-20T05:41:09;8.93;;;4.55;;
55007;SDS011;40902;45.116;21.296;2022-11-20T05:43:38;7.20;;;4.90;;
55007;SDS011;40902;45.116;21.296;2022-11-20T05:46:05;8.15;;;5.45;;
55007;SDS011;40902;45.116;21.296;2022-11-20T05:48:32;7.32;;;5.28;;
55007;SDS011;40902;45.116;21.296;2022-11-20T05:50:59;6.95;;;6.25;;
55007;SDS011;40902;45.116;21.296;2022-11-20T05:53:26;9.85;;;7.35;;
55007;SDS011;40902;45.116;21.296;2022-11-20T05:56:12;8.00;;;5.28;;
55007;SDS011;40902;45.116;21.296;2022-11-20T05:58:40;5.13;;;3.83;;
55007;SDS011;40902;45.116;21.296;2022-11-20T06:01:07;4.97;;;3.92;;
55007;SDS011;40902;45.116;21.296;2022-11-20T06:03:33;7.13;;;4.18;;
55007;SDS011;40902;45.116;21.296;2022-11-20T06:06:00;4.95;;;3.50;;
55007;SDS011;40902;45.116;21.296;2022-11-20T06:08:26;5.25;;;4.03;;
55007;SDS011;40902;45.116;21.296;2022-11-20T06:10:52;5.50;;;4.13;;
55007;SDS011;40902;45.116;21.296;2022-11-20T06:13:18;6.22;;;3.67;;
55007;SDS011;40902;45.116;21.296;2022-11-20T06:15:50;5.28;;;4.10;;
55007;SDS011;40902;45.116;21.296;2022-11-20T06:18:17;5.40;;;4.17;;
55007;SDS011;40902;45.116;21.296;2022-11-20T06:20:43;6.30;;;4.53;;
55007;SDS011;40902;45.116;21.296;2022-11-20T06:23:09;5.03;;;4.32;;
55007;SDS011;40902;45.116;21.296;2022-11-20T06:25:38;5.97;;;4.70;;
55007;SDS011;40902;45.116;21.296;2022-11-20T06:28:05;8.48;;;5.40;;
55007;SDS011;40902;45.116;21.296;2022-11-20T06:30:31;5.40;;;4.20;;
55007;SDS011;40902;45.116;21.296;2022-11-20T06:32:57;5.00;;;4.28;;
55007;SDS011;40902;45.116;21.296;2022-11-20T06:35:23;5.50;;;4.10;;
55007;SDS011;40902;45.116;21.296;2022-11-20T06:37:48;5.05;;;4.18;;
55007;SDS011;40902;45.116;21.296;2022-11-20T06:40:14;6.30;;;4.47;;
55007;SDS011;40902;45.116;21.296;2022-11-20T06:42:40;5.57;;;4.70;;
55007;SDS011;40902;45.116;21.296;2022-11-20T06:45:05;6.28;;;4.47;;
55007;SDS011;40902;45.116;21.296;2022-11-20T06:47:32;6.15;;;4.72;;
55007;SDS011;40902;45.116;21.296;2022-11-20T06:49:58;6.07;;;5.25;;
55007;SDS011;40902;45.116;21.296;2022-11-20T06:52:24;6.40;;;4.60;;
55007;SDS011;40902;45.116;21.296;2022-11-20T06:54:49;5.65;;;4.47;;
55007;SDS011;40902;45.116;21.296;2022-11-20T06:57:15;6.15;;;4.90;;
55007;SDS011;40902;45.116;21.296;2022-11-20T06:59:41;6.18;;;5.05;;
55007;SDS011;40902;45.116;21.296;2022-11-20T07:02:09;6.45;;;5.10;;
55007;SDS011;40902;45.116;21.296;2022-11-20T07:04:36;7.25;;;4.90;;
55007;SDS011;40902;45.116;21.296;2022-11-20T07:07:02;6.60;;;5.05;;
55007;SDS011;40902;45.116;21.296;2022-11-20T07:09:28;6.35;;;5.00;;
55007;SDS011;40902;45.116;21.296;2022-11-20T07:11:53;6.20;;;5.10;;
55007;SDS011;40902;45.116;21.296;2022-11-20T07:14:19;6.78;;;5.30;;
55007;SDS011;40902;45.116;21.296;2022-11-20T07:16:45;7.55;;;5.90;;
55007;SDS011;40902;45.116;21.296;2022-11-20T07:19:11;8.38;;;6.60;;
55007;SDS011;40902;45.116;21.296;2022-11-20T07:21:36;8.07;;;6.32;;
55007;SDS011;40902;45.116;21.296;2022-11-20T07:24:02;6.93;;;5.50;;
55007;SDS011;40902;45.116;21.296;2022-11-20T07:26:28;8.25;;;5.80;;
55007;SDS011;40902;45.116;21.296;2022-11-20T07:28:54;7.45;;;5.75;;
55007;SDS011;40902;45.116;21.296;2022-11-20T07:31:19;8.18;;;5.70;;
55007;SDS011;40902;45.116;21.296;2022-11-20T07:33:45;8.40;;;6.22;;
55007;SDS011;40902;45.116;21.296;2022-11-20T07:36:11;7.20;;;5.50;;
55007;SDS011;40902;45.116;21.296;2022-11-20T07:38:37;7.32;;;5.68;;
55007;SDS011;40902;45.116;21.296;2022-11-20T07:41:03;8.98;;;6.63;;
55007;SDS011;40902;45.116;21.296;2022-11-20T07:43:29;7.75;;;6.18;;
55007;SDS011;40902;45.116;21.296;2022-11-20T07:45:55;8.90;;;6.07;;
55007;SDS011;40902;45.116;21.296;2022-11-20T07:48:22;9.00;;;5.57;;
55007;SDS011;40902;45.116;21.296;2022-11-20T07:50:48;8.23;;;6.15;;
55007;SDS011;40902;45.116;21.296;2022-11-20T07:53:14;9.90;;;7.55;;
55007;SDS011;40902;45.116;21.296;2022-11-20T07:55:45;12.90;;;8.60;;
55007;SDS011;40902;45.116;21.296;2022-11-20T07:58:11;14.02;;;10.50;;
55007;SDS011;40902;45.116;21.296;2022-11-20T08:00:37;14.98;;;9.95;;
55007;SDS011;40902;45.116;21.296;2022-11-20T08:03:03;8.15;;;6.38;;
55007;SDS011;40902;45.116;21.296;2022-11-20T08:05:29;10.35;;;6.57;;
55007;SDS011;40902;45.116;21.296;2022-11-20T08:07:55;7.70;;;6.43;;
55007;SDS011;40902;45.116;21.296;2022-11-20T08:10:21;6.20;;;5.15;;
55007;SDS011;40902;45.116;21.296;2022-11-20T08:12:47;6.20;;;5.20;;
55007;SDS011;40902;45.116;21.296;2022-11-20T08:15:33;7.95;;;5.95;;
55007;SDS011;40902;45.116;21.296;2022-11-20T08:18:03;8.73;;;6.25;;
55007;SDS011;40902;45.116;21.296;2022-11-20T08:20:29;12.25;;;7.05;;
55007;SDS011;40902;45.116;21.296;2022-11-20T08:22:58;16.42;;;8.50;;
55007;SDS011;40902;45.116;21.296;2022-11-20T08:25:26;14.35;;;8.80;;
55007;SDS011;40902;45.116;21.296;2022-11-20T08:27:52;14.52;;;9.50;;
55007;SDS011;40902;45.116;21.296;2022-11-20T08:30:18;14.30;;;7.50;;
55007;SDS011;40902;45.116;21.296;2022-11-20T08:32:43;14.48;;;8.65;;
55007;SDS011;40902;45.116;21.296;2022-11-20T08:35:09;8.45;;;6.40;;
55007;SDS011;40902;45.116;21.296;2022-11-20T08:37:35;10.88;;;7.07;;
55007;SDS011;40902;45.116;21.296;2022-11-20T08:40:02;13.10;;;7.75;;
55007;SDS011;40902;45.116;21.296;2022-11-20T08:42:28;12.02;;;7.32;;
55007;SDS011;40902;45.116;21.296;2022-11-20T08:44:54;7.43;;;6.00;;
55007;SDS011;40902;45.116;21.296;2022-11-20T08:47:20;14.73;;;13.13;;
55007;SDS011;40902;45.116;21.296;2022-11-20T08:49:45;65.95;;;47.38;;
55007;SDS011;40902;45.116;21.296;2022-11-20T08:52:11;42.80;;;36.83;;
55007;SDS011;40902;45.116;21.296;2022-11-20T08:54:37;33.22;;;29.73;;
55007;SDS011;40902;45.116;21.296;2022-11-20T08:57:02;20.33;;;17.77;;
55007;SDS011;40902;45.116;21.296;2022-11-20T08:59:28;11.63;;;8.75;;
55007;SDS011;40902;45.116;21.296;2022-11-20T09:01:55;9.60;;;7.03;;
55007;SDS011;40902;45.116;21.296;2022-11-20T09:04:21;8.40;;;6.22;;
55007;SDS011;40902;45.116;21.296;2022-11-20T09:06:47;7.85;;;5.32;;
55007;SDS011;40902;45.116;21.296;2022-11-20T09:09:16;8.40;;;5.03;;
55007;SDS011;40902;45.116;21.296;2022-11-20T09:11:43;10.40;;;7.53;;
55007;SDS011;40902;45.116;21.296;2022-11-20T09:14:08;27.42;;;20.88;;
55007;SDS011;40902;45.116;21.296;2022-11-20T09:16:34;10.02;;;7.35;;
55007;SDS011;40902;45.116;21.296;2022-11-20T09:19:00;9.27;;;7.13;;
55007;SDS011;40902;45.116;21.296;2022-11-20T09:21:25;6.13;;;4.20;;
55007;SDS011;40902;45.116;21.296;2022-11-20T09:23:51;6.25;;;4.30;;
55007;SDS011;40902;45.116;21.296;2022-11-20T09:26:17;5.93;;;4.88;;
55007;SDS011;40902;45.116;21.296;2022-11-20T09:28:42;5.75;;;4.93;;
55007;SDS011;40902;45.116;21.296;2022-11-20T09:31:09;6.45;;;4.80;;
55007;SDS011;40902;45.116;21.296;2022-11-20T09:33:48;7.00;;;5.75;;
55007;SDS011;40902;45.116;21.296;2022-11-20T09:36:14;7.43;;;4.38;;
55007;SDS011;40902;45.116;21.296;2022-11-20T09:38:41;7.95;;;5.75;;
55007;SDS011;40902;45.116;21.296;2022-11-20T09:41:14;8.15;;;5.07;;
55007;SDS011;40902;45.116;21.296;2022-11-20T09:49:23;4.93;;;4.28;;
55007;SDS011;40902;45.116;21.296;2022-11-20T09:51:57;6.38;;;4.28;;
55007;SDS011;40902;45.116;21.296;2022-11-20T09:54:29;8.30;;;4.78;;
55007;SDS011;40902;45.116;21.296;2022-11-20T09:57:05;5.87;;;4.10;;
55007;SDS011;40902;45.116;21.296;2022-11-20T09:59:43;6.10;;;4.18;;
55007;SDS011;40902;45.116;21.296;2022-11-20T10:04:59;6.05;;;4.70;;
55007;SDS011;40902;45.116;21.296;2022-11-20T10:07:37;5.60;;;4.40;;
55007;SDS011;40902;45.116;21.296;2022-11-20T10:10:28;12.10;;;4.88;;
55007;SDS011;40902;45.116;21.296;2022-11-20T10:24:17;9.68;;;6.85;;
55007;SDS011;40902;45.116;21.296;2022-11-20T10:30:06;9.95;;;6.28;;
55007;SDS011;40902;45.116;21.296;2022-11-20T10:32:48;7.88;;;5.50;;
55007;SDS011;40902;45.116;21.296;2022-11-20T10:35:43;8.45;;;5.47;;
55007;SDS011;40902;45.116;21.296;2022-11-20T10:38:19;7.65;;;5.45;;
55007;SDS011;40902;45.116;21.296;2022-11-20T10:40:49;8.43;;;5.63;;
55007;SDS011;40902;45.116;21.296;2022-11-20T10:43:41;9.98;;;5.00;;
55007;SDS011;40902;45.116;21.296;2022-11-20T10:46:15;8.50;;;6.63;;
55007;SDS011;40902;45.116;21.296;2022-11-20T10:48:45;9.88;;;5.70;;
55007;SDS011;40902;45.116;21.296;2022-11-20T10:56:51;9.65;;;7.57;;
55007;SDS011;40902;45.116;21.296;2022-11-20T11:02:21;9.38;;;7.15;;
55007;SDS011;40902;45.116;21.296;2022-11-20T11:04:57;9.27;;;7.65;;
55007;SDS011;40902;45.116;21.296;2022-11-20T11:07:35;8.25;;;6.32;;
55007;SDS011;40902;45.116;21.296;2022-11-20T11:10:11;10.95;;;7.38;;
55007;SDS011;40902;45.116;21.296;2022-11-20T11:12:51;13.15;;;8.05;;
55007;SDS011;40902;45.116;21.296;2022-11-20T11:18:01;8.55;;;6.38;;
55007;SDS011;40902;45.116;21.296;2022-11-20T11:20:26;8.65;;;7.07;;
55007;SDS011;40902;45.116;21.296;2022-11-20T11:22:53;7.18;;;5.90;;
55007;SDS011;40902;45.116;21.296;2022-11-20T11:27:52;6.10;;;5.13;;
55007;SDS011;40902;45.116;21.296;2022-11-20T11:30:21;9.77;;;7.15;;
55007;SDS011;40902;45.116;21.296;2022-11-20T11:32:48;8.80;;;6.82;;
55007;SDS011;40902;45.116;21.296;2022-11-20T11:35:19;9.57;;;6.97;;
55007;SDS011;40902;45.116;21.296;2022-11-20T11:37:46;6.45;;;4.45;;
55007;SDS011;40902;45.116;21.296;2022-11-20T11:40:14;6.18;;;4.85;;
55007;SDS011;40902;45.116;21.296;2022-11-20T11:42:42;9.35;;;7.10;;
55007;SDS011;40902;45.116;21.296;2022-11-20T11:45:13;8.20;;;6.40;;
55007;SDS011;40902;45.116;21.296;2022-11-20T12:01:17;13.38;;;9.10;;
55007;SDS011;40902;45.116;21.296;2022-11-20T12:04:13;14.23;;;9.75;;
55007;SDS011;40902;45.116;21.296;2022-11-20T12:06:46;15.15;;;11.52;;
55007;SDS011;40902;45.116;21.296;2022-11-20T12:09:16;14.95;;;10.98;;
55007;SDS011;40902;45.116;21.296;2022-11-20T12:11:46;18.23;;;13.00;;
55007;SDS011;40902;45.116;21.296;2022-11-20T12:16:56;16.47;;;11.20;;
55007;SDS011;40902;45.116;21.296;2022-11-20T12:19:22;12.77;;;9.48;;
55007;SDS011;40902;45.116;21.296;2022-11-20T12:30:10;14.05;;;10.60;;
55007;SDS011;40902;45.116;21.296;2022-11-20T12:33:02;15.10;;;11.95;;
55007;SDS011;40902;45.116;21.296;2022-11-20T12:52:56;20.63;;;12.82;;
55007;SDS011;40902;45.116;21.296;2022-11-20T12:55:56;21.10;;;14.55;;
55007;SDS011;40902;45.116;21.296;2022-11-20T12:58:39;15.30;;;11.48;;
55007;SDS011;40902;45.116;21.296;2022-11-20T13:04:55;17.83;;;13.00;;
55007;SDS011;40902;45.116;21.296;2022-11-20T13:07:05;16.55;;;12.82;;
55007;SDS011;40902;45.116;21.296;2022-11-20T13:09:33;15.75;;;11.57;;
55007;SDS011;40902;45.116;21.296;2022-11-20T13:12:08;17.63;;;12.98;;
55007;SDS011;40902;45.116;21.296;2022-11-20T13:14:45;16.15;;;11.15;;
55007;SDS011;40902;45.116;21.296;2022-11-20T13:17:36;19.15;;;15.25;;
55007;SDS011;40902;45.116;21.296;2022-11-20T13:20:27;14.30;;;10.13;;
55007;SDS011;40902;45.116;21.296;2022-11-20T13:22:56;12.77;;;9.75;;
55007;SDS011;40902;45.116;21.296;2022-11-20T13:25:28;14.20;;;11.25;;
55007;SDS011;40902;45.116;21.296;2022-11-20T13:27:55;18.98;;;12.82;;
55007;SDS011;40902;45.116;21.296;2022-11-20T13:30:23;18.90;;;13.43;;
55007;SDS011;40902;45.116;21.296;2022-11-20T13:35:53;22.25;;;14.35;;
55007;SDS011;40902;45.116;21.296;2022-11-20T13:38:44;18.20;;;12.50;;
55007;SDS011;40902;45.116;21.296;2022-11-20T13:41:23;20.17;;;14.27;;
55007;SDS011;40902;45.116;21.296;2022-11-20T13:46:38;18.45;;;13.75;;
55007;SDS011;40902;45.116;21.296;2022-11-20T14:00:12;17.95;;;11.07;;
55007;SDS011;40902;45.116;21.296;2022-11-20T14:02:42;16.73;;;12.43;;
55007;SDS011;40902;45.116;21.296;2022-11-20T14:05:15;17.08;;;11.52;;
55007;SDS011;40902;45.116;21.296;2022-11-20T14:07:46;12.93;;;9.52;;
55007;SDS011;40902;45.116;21.296;2022-11-20T14:10:20;12.75;;;9.48;;
55007;SDS011;40902;45.116;21.296;2022-11-20T14:12:51;12.32;;;8.60;;
55007;SDS011;40902;45.116;21.296;2022-11-20T14:15:56;14.90;;;11.15;;
55007;SDS011;40902;45.116;21.296;2022-11-20T14:18:12;13.77;;;9.95;;
55007;SDS011;40902;45.116;21.296;2022-11-20T14:20:49;13.25;;;10.20;;
55007;SDS011;40902;45.116;21.296;2022-11-20T14:23:23;12.60;;;9.65;;
55007;SDS011;40902;45.116;21.296;2022-11-20T14:25:53;18.50;;;12.82;;
55007;SDS011;40902;45.116;21.296;2022-11-20T14:28:24;14.70;;;9.93;;
55007;SDS011;40902;45.116;21.296;2022-11-20T14:30:51;13.68;;;10.27;;
55007;SDS011;40902;45.116;21.296;2022-11-20T14:33:17;9.68;;;7.45;;
55007;SDS011;40902;45.116;21.296;2022-11-20T14:35:48;10.65;;;8.52;;
55007;SDS011;40902;45.116;21.296;2022-11-20T14:38:17;12.77;;;8.95;;
55007;SDS011;40902;45.116;21.296;2022-11-20T14:40:46;13.35;;;9.95;;
55007;SDS011;40902;45.116;21.296;2022-11-20T14:43:19;13.00;;;8.88;;
55007;SDS011;40902;45.116;21.296;2022-11-20T14:46:05;14.85;;;11.52;;
55007;SDS011;40902;45.116;21.296;2022-11-20T14:48:40;15.77;;;11.80;;
55007;SDS011;40902;45.116;21.296;2022-11-20T14:51:10;13.43;;;10.05;;
55007;SDS011;40902;45.116;21.296;2022-11-20T14:53:37;15.35;;;10.77;;
55007;SDS011;40902;45.116;21.296;2022-11-20T14:56:03;14.15;;;9.70;;
55007;SDS011;40902;45.116;21.296;2022-11-20T14:58:30;14.93;;;10.18;;
55007;SDS011;40902;45.116;21.296;2022-11-20T15:00:59;19.23;;;11.73;;
55007;SDS011;40902;45.116;21.296;2022-11-20T15:03:32;14.80;;;10.50;;
55007;SDS011;40902;45.116;21.296;2022-11-20T15:06:02;16.58;;;12.30;;
55007;SDS011;40902;45.116;21.296;2022-11-20T15:08:28;15.93;;;10.73;;
55007;SDS011;40902;45.116;21.296;2022-11-20T15:10:54;14.77;;;10.30;;
55007;SDS011;40902;45.116;21.296;2022-11-20T15:13:38;15.63;;;11.20;;
55007;SDS011;40902;45.116;21.296;2022-11-20T15:16:13;16.38;;;11.38;;
55007;SDS011;40902;45.116;21.296;2022-11-20T15:18:45;14.40;;;9.80;;
55007;SDS011;40902;45.116;21.296;2022-11-20T15:21:12;12.50;;;9.25;;
55007;SDS011;40902;45.116;21.296;2022-11-20T15:23:39;15.43;;;10.70;;
55007;SDS011;40902;45.116;21.296;2022-11-20T15:26:06;17.70;;;11.57;;
55007;SDS011;40902;45.116;21.296;2022-11-20T15:28:33;19.00;;;13.40;;
55007;SDS011;40902;45.116;21.296;2022-11-20T15:31:02;18.58;;;13.10;;
55007;SDS011;40902;45.116;21.296;2022-11-20T15:33:29;21.85;;;13.13;;
55007;SDS011;40902;45.116;21.296;2022-11-20T15:35:55;22.73;;;14.77;;
55007;SDS011;40902;45.116;21.296;2022-11-20T15:38:21;24.80;;;16.98;;
55007;SDS011;40902;45.116;21.296;2022-11-20T15:40:47;16.73;;;11.65;;
55007;SDS011;40902;45.116;21.296;2022-11-20T15:43:12;11.35;;;9.50;;
55007;SDS011;40902;45.116;21.296;2022-11-20T15:45:42;13.00;;;10.20;;
55007;SDS011;40902;45.116;21.296;2022-11-20T15:48:12;16.15;;;11.20;;
55007;SDS011;40902;45.116;21.296;2022-11-20T15:50:43;12.88;;;10.18;;
55007;SDS011;40902;45.116;21.296;2022-11-20T15:53:18;14.02;;;11.00;;
55007;SDS011;40902;45.116;21.296;2022-11-20T15:55:44;16.17;;;11.23;;
55007;SDS011;40902;45.116;21.296;2022-11-20T15:58:10;14.77;;;11.65;;
55007;SDS011;40902;45.116;21.296;2022-11-20T16:00:35;18.70;;;13.73;;
55007;SDS011;40902;45.116;21.296;2022-11-20T16:03:01;20.10;;;13.90;;
55007;SDS011;40902;45.116;21.296;2022-11-20T16:05:28;17.05;;;12.57;;
55007;SDS011;40902;45.116;21.296;2022-11-20T16:07:54;19.98;;;13.70;;
55007;SDS011;40902;45.116;21.296;2022-11-20T16:10:20;19.77;;;13.98;;
55007;SDS011;40902;45.116;21.296;2022-11-20T16:12:46;18.00;;;12.75;;
55007;SDS011;40902;45.116;21.296;2022-11-20T16:18:16;22.17;;;15.68;;
55007;SDS011;40902;45.116;21.296;2022-11-20T16:20:43;20.75;;;14.57;;
55007;SDS011;40902;45.116;21.296;2022-11-20T16:23:10;22.63;;;15.93;;
55007;SDS011;40902;45.116;21.296;2022-11-20T16:25:36;23.77;;;15.90;;
55007;SDS011;40902;45.116;21.296;2022-11-20T16:28:02;23.77;;;15.73;;